createdAt,value
2023-02-21T00:00:23.589Z,6.1
2023-02-21T00:04:22.652Z,6.2
2023-02-21T00:06:22.044Z,6.2
2023-02-21T00:08:21.937Z,6.2
2023-02-21T00:10:23.236Z,6.2
2023-02-21T00:12:20.872Z,6.2
2023-02-21T00:14:20.586Z,6.2
2023-02-21T00:16:23.198Z,6.2
2023-02-21T00:18:20.109Z,6.2
2023-02-21T00:20:19.729Z,6.2
2023-02-21T00:22:19.146Z,6.2
2023-02-21T00:24:22.198Z,6.2
2023-02-21T00:26:18.503Z,6.2
2023-02-21T00:28:18.163Z,6.2
2023-02-21T00:30:19.312Z,6.2
2023-02-21T00:32:17.697Z,6.2
2023-02-21T00:34:17.030Z,6.0
2023-02-21T00:36:17.110Z,6.1
2023-02-21T00:38:16.265Z,6.1
2023-02-21T00:40:16.739Z,6.1
2023-02-21T00:42:15.556Z,6.1
2023-02-21T00:44:15.487Z,6.1
2023-02-21T00:46:14.791Z,6.1
2023-02-21T00:48:14.658Z,6.1
2023-02-21T00:50:14.881Z,6.1
2023-02-21T00:52:13.684Z,6.1
2023-02-21T00:54:13.410Z,6.0
2023-02-21T00:56:13.891Z,6.1
2023-02-21T00:58:12.832Z,6.1
2023-02-21T01:00:14.008Z,6.0
2023-02-21T01:02:11.875Z,6.0
2023-02-21T01:04:11.426Z,6.0
2023-02-21T01:06:10.996Z,6.0
2023-02-21T01:08:10.812Z,6.0
2023-02-21T01:10:10.283Z,6.0
2023-02-21T01:12:10.036Z,5.9
2023-02-21T01:14:09.805Z,6.0
2023-02-21T01:16:09.341Z,6.0
2023-02-21T01:18:08.737Z,6.0
2023-02-21T01:20:09.325Z,5.9
2023-02-21T01:22:08.012Z,6.0
2023-02-21T01:24:07.810Z,5.9
2023-02-21T01:26:07.243Z,5.9
2023-02-21T01:28:06.927Z,5.9
2023-02-21T01:30:06.547Z,5.9
2023-02-21T01:32:06.394Z,5.9
2023-02-21T01:34:05.866Z,5.9
2023-02-21T01:36:05.647Z,5.9
2023-02-21T01:38:05.364Z,5.9
2023-02-21T01:40:04.816Z,6.0
2023-02-21T01:42:04.334Z,6.0
2023-02-21T01:44:10.439Z,5.9
2023-02-21T01:46:04.855Z,5.9
2023-02-21T01:48:03.225Z,5.9
2023-02-21T01:50:02.901Z,5.9
2023-02-21T01:52:03.292Z,5.9
2023-02-21T01:56:04.785Z,5.9
2023-02-21T01:58:04.563Z,5.8
2023-02-21T02:00:05.388Z,5.9
2023-02-21T02:02:04.653Z,5.8
2023-02-21T02:04:00.878Z,5.8
2023-02-21T02:06:04.193Z,5.8
2023-02-21T02:08:01.590Z,5.8
2023-02-21T02:09:59.232Z,5.9
2023-02-21T02:12:14.290Z,5.9
2023-02-21T02:14:07.811Z,5.9
2023-02-21T02:15:58.456Z,5.9
2023-02-21T02:17:59.637Z,5.8
2023-02-21T02:20:06.641Z,5.8
2023-02-21T02:22:07.109Z,5.8
2023-02-21T02:24:06.615Z,5.8
2023-02-21T02:26:05.530Z,5.8
2023-02-21T02:27:59.536Z,5.8
2023-02-21T02:30:06.969Z,5.8
2023-02-21T02:32:04.122Z,5.8
2023-02-21T02:34:04.507Z,5.8
2023-02-21T02:35:48.349Z,5.8
2023-02-21T02:37:51.354Z,5.8
2023-02-21T02:39:51.392Z,5.8
2023-02-21T02:45:47.778Z,5.7
2023-02-21T02:47:44.688Z,5.7
2023-02-21T02:49:44.321Z,5.7
2023-02-21T02:51:42.085Z,5.7
2023-02-21T02:53:41.830Z,5.7
2023-02-21T02:55:47.937Z,5.8
2023-02-21T02:57:47.696Z,5.8
2023-02-21T02:59:45.508Z,5.7
2023-02-21T03:02:00.748Z,5.7
2023-02-21T03:03:50.947Z,5.7
2023-02-21T03:05:53.060Z,5.7
2023-02-21T03:07:49.733Z,5.7
2023-02-21T03:09:51.409Z,5.7
2023-02-21T03:11:49.937Z,5.7
2023-02-21T03:13:44.642Z,5.7
2023-02-21T03:15:44.982Z,5.6
2023-02-21T03:17:42.861Z,5.7
2023-02-21T03:19:41.445Z,5.6
2023-02-21T03:21:41.021Z,5.7
2023-02-21T03:23:38.492Z,5.7
2023-02-21T03:25:37.591Z,5.7
2023-02-21T03:27:36.507Z,5.7
2023-02-21T03:29:36.750Z,5.6
2023-02-21T03:31:40.544Z,5.7
2023-02-21T03:33:34.889Z,5.7
2023-02-21T03:35:33.931Z,5.6
2023-02-21T03:37:35.921Z,5.7
2023-02-21T03:39:33.167Z,5.5
2023-02-21T03:41:32.964Z,5.5
2023-02-21T03:43:32.404Z,5.6
2023-02-21T03:45:32.273Z,5.5
2023-02-21T03:47:31.586Z,5.5
2023-02-21T03:49:31.189Z,5.6
2023-02-21T03:53:30.730Z,5.6
2023-02-21T03:55:30.169Z,5.6
2023-02-21T03:57:30.084Z,5.6
2023-02-21T03:59:29.404Z,5.6
2023-02-21T04:01:29.123Z,5.6
2023-02-21T04:03:28.534Z,5.7
2023-02-21T04:05:28.437Z,5.6
2023-02-21T04:07:27.850Z,5.6
2023-02-21T04:09:27.689Z,5.6
2023-02-21T04:11:27.352Z,5.6
2023-02-21T04:13:26.640Z,5.6
2023-02-21T04:15:26.485Z,5.6
2023-02-21T04:17:26.195Z,5.6
2023-02-21T04:19:25.725Z,5.6
2023-02-21T04:23:25.011Z,5.5
2023-02-21T04:25:24.325Z,5.5
2023-02-21T04:27:24.051Z,5.5
2023-02-21T04:31:23.650Z,5.5
2023-02-21T04:33:22.849Z,5.5
2023-02-21T04:35:22.681Z,5.4
2023-02-21T04:37:22.093Z,5.4
2023-02-21T04:39:21.678Z,5.4
2023-02-21T04:41:21.579Z,5.4
2023-02-21T04:43:21.114Z,5.4
2023-02-21T04:45:20.629Z,5.4
2023-02-21T04:51:22.739Z,5.4
2023-02-21T04:53:19.166Z,5.4
2023-02-21T04:55:18.746Z,5.4
2023-02-21T04:57:18.349Z,5.4
2023-02-21T04:59:17.975Z,5.4
2023-02-21T05:01:19.243Z,5.4
2023-02-21T05:03:17.481Z,5.3
2023-02-21T05:05:16.878Z,5.4
2023-02-21T05:07:16.833Z,5.4
2023-02-21T05:09:16.150Z,5.4
2023-02-21T05:11:16.774Z,5.4
2023-02-21T05:13:15.963Z,5.3
2023-02-21T05:15:16.291Z,5.4
2023-02-21T05:17:14.679Z,5.4
2023-02-21T05:19:26.100Z,5.4
2023-02-21T05:21:15.233Z,5.3
2023-02-21T05:23:16.203Z,5.3
2023-02-21T05:25:15.577Z,5.3
2023-02-21T05:27:14.568Z,5.2
2023-02-21T05:29:12.226Z,5.3
2023-02-21T05:31:11.982Z,5.3
2023-02-21T05:33:11.726Z,5.3
2023-02-21T05:35:13.690Z,5.3
2023-02-21T05:37:11.395Z,5.2
2023-02-21T05:39:10.932Z,5.3
2023-02-21T05:41:10.098Z,5.3
2023-02-21T05:45:09.672Z,5.3
2023-02-21T05:49:08.532Z,5.3
2023-02-21T05:51:08.503Z,5.3
2023-02-21T05:55:07.265Z,5.3
2023-02-21T05:57:07.213Z,5.3
2023-02-21T05:59:07.825Z,5.3
2023-02-21T06:01:06.340Z,5.3
2023-02-21T06:03:06.047Z,5.3
2023-02-21T06:05:05.935Z,5.3
2023-02-21T06:07:04.985Z,5.2
2023-02-21T06:09:05.681Z,5.2
2023-02-21T06:11:04.388Z,5.2
2023-02-21T06:13:03.863Z,5.2
2023-02-21T06:15:06.357Z,5.2
2023-02-21T06:17:03.179Z,5.2
2023-02-21T06:19:04.394Z,5.2
2023-02-21T06:21:02.552Z,5.2
2023-02-21T06:23:02.011Z,5.2
2023-02-21T06:25:01.572Z,5.1
2023-02-21T06:29:00.894Z,5.2
2023-02-21T06:31:00.960Z,5.2
2023-02-21T06:33:00.102Z,5.2
2023-02-21T06:34:59.590Z,5.2
2023-02-21T06:36:59.153Z,5.2
2023-02-21T06:38:58.776Z,5.2
2023-02-21T06:40:58.648Z,5.2
2023-02-21T06:42:57.948Z,5.2
2023-02-21T06:44:57.813Z,5.3
2023-02-21T06:46:57.384Z,5.3
2023-02-21T06:48:57.455Z,5.3
2023-02-21T06:50:56.605Z,5.3
2023-02-21T06:52:56.244Z,5.3
2023-02-21T06:54:55.634Z,5.2
2023-02-21T06:58:55.763Z,5.3
2023-02-21T07:00:54.594Z,5.3
2023-02-21T07:02:54.080Z,5.3
2023-02-21T07:04:54.530Z,5.3
2023-02-21T07:06:53.504Z,5.3
2023-02-21T07:08:53.016Z,5.3
2023-02-21T07:10:52.815Z,5.3
2023-02-21T07:12:52.177Z,5.3
2023-02-21T07:14:51.828Z,5.3
2023-02-21T07:16:51.671Z,5.3
2023-02-21T07:18:51.231Z,5.3
2023-02-21T07:20:50.660Z,5.3
2023-02-21T07:22:50.361Z,5.3
2023-02-21T07:24:49.810Z,5.3
2023-02-21T07:28:49.881Z,5.3
2023-02-21T07:30:48.895Z,5.3
2023-02-21T07:32:48.428Z,5.3
2023-02-21T07:34:47.925Z,5.4
2023-02-21T07:36:47.869Z,5.4
2023-02-21T07:38:47.220Z,5.4
2023-02-21T07:40:47.334Z,5.4
2023-02-21T07:42:47.055Z,5.4
2023-02-21T07:44:46.967Z,5.4
2023-02-21T07:46:45.658Z,5.4
2023-02-21T07:48:45.727Z,5.4
2023-02-21T07:50:45.442Z,5.4
2023-02-21T07:52:45.456Z,5.4
2023-02-21T07:54:44.707Z,5.4
2023-02-21T07:56:44.120Z,5.4
2023-02-21T07:58:43.279Z,5.4
2023-02-21T08:00:42.932Z,5.4
2023-02-21T08:02:47.807Z,5.5
2023-02-21T08:06:42.015Z,5.5
2023-02-21T08:10:40.959Z,5.5
2023-02-21T08:12:40.675Z,5.4
2023-02-21T08:14:40.229Z,5.4
2023-02-21T08:16:39.931Z,5.5
2023-02-21T08:18:39.576Z,5.4
2023-02-21T08:20:38.996Z,5.5
2023-02-21T08:22:38.559Z,5.4
2023-02-21T08:24:38.508Z,5.4
2023-02-21T08:26:40.164Z,5.5
2023-02-21T08:32:37.216Z,5.5
2023-02-21T08:36:39.493Z,5.5
2023-02-21T08:38:35.582Z,5.6
2023-02-21T08:42:34.806Z,5.5
2023-02-21T08:44:34.855Z,5.5
2023-02-21T08:46:35.067Z,5.5
2023-02-21T08:48:33.776Z,5.5
2023-02-21T08:50:33.397Z,5.5
2023-02-21T08:52:33.024Z,5.4
2023-02-21T08:54:32.822Z,5.5
2023-02-21T08:56:33.240Z,5.5
2023-02-21T08:58:31.821Z,5.5
2023-02-21T09:00:31.808Z,5.5
2023-02-21T09:02:31.801Z,5.6
2023-02-21T09:04:30.528Z,5.5
2023-02-21T09:06:31.303Z,5.6
2023-02-21T09:08:30.012Z,5.6
2023-02-21T09:10:33.023Z,5.6
2023-02-21T09:12:29.122Z,5.6
2023-02-21T09:14:28.625Z,5.7
2023-02-21T09:16:28.402Z,5.7
2023-02-21T09:18:29.933Z,5.7
2023-02-21T09:20:27.716Z,5.7
2023-02-21T09:22:27.468Z,5.7
2023-02-21T09:24:27.057Z,5.8
2023-02-21T09:26:31.089Z,5.7
2023-02-21T09:28:26.038Z,5.7
2023-02-21T09:30:25.927Z,5.6
2023-02-21T09:32:25.859Z,5.6
2023-02-21T09:34:25.451Z,5.6
2023-02-21T09:36:24.665Z,5.7
2023-02-21T09:38:24.209Z,5.7
2023-02-21T09:40:35.017Z,5.6
2023-02-21T09:42:28.802Z,5.7
2023-02-21T09:44:26.873Z,5.7
2023-02-21T09:46:31.011Z,5.7
2023-02-21T09:48:23.440Z,5.6
2023-02-21T09:50:30.079Z,5.7
2023-02-21T09:52:28.682Z,5.7
2023-02-21T09:54:27.342Z,5.6
2023-02-21T09:56:27.275Z,5.6
2023-02-21T09:58:21.065Z,5.7
2023-02-21T10:00:22.130Z,5.8
2023-02-21T10:02:36.502Z,5.8
2023-02-21T10:04:37.371Z,5.8
2023-02-21T10:06:30.751Z,5.8
2023-02-21T10:08:25.898Z,5.8
2023-02-21T10:10:26.305Z,5.8
2023-02-21T10:12:25.383Z,5.8
2023-02-21T10:14:26.181Z,5.9
2023-02-21T10:16:23.231Z,5.9
2023-02-21T10:18:27.210Z,5.9
2023-02-21T10:20:25.932Z,6.0
2023-02-21T10:22:19.965Z,6.0
2023-02-21T10:24:20.328Z,6.0
2023-02-21T10:26:22.258Z,6.0
2023-02-21T10:28:20.740Z,6.0
2023-02-21T10:32:14.578Z,6.1
2023-02-21T10:34:22.489Z,6.1
2023-02-21T10:36:17.378Z,6.1
2023-02-21T10:38:18.082Z,6.0
2023-02-21T10:40:22.031Z,6.1
2023-02-21T10:42:21.719Z,6.0
2023-02-21T10:44:15.941Z,6.0
2023-02-21T10:46:17.154Z,5.9
2023-02-21T10:48:11.678Z,5.9
2023-02-21T10:50:11.282Z,5.9
2023-02-21T10:54:19.731Z,6.0
2023-02-21T10:56:21.237Z,6.0
2023-02-21T10:58:20.589Z,6.1
2023-02-21T11:00:18.881Z,6.0
2023-02-21T11:02:27.452Z,5.9
2023-02-21T11:04:27.061Z,5.9
2023-02-21T11:06:07.452Z,5.8
2023-02-21T11:08:08.773Z,5.8
2023-02-21T11:10:25.564Z,5.9
2023-02-21T11:12:21.243Z,6.0
2023-02-21T11:14:21.201Z,5.8
2023-02-21T11:16:09.951Z,5.9
2023-02-21T11:18:13.032Z,5.9
2023-02-21T11:22:04.703Z,5.9
2023-02-21T11:24:06.280Z,5.9
2023-02-21T11:26:08.411Z,5.9
2023-02-21T11:28:07.133Z,5.9
2023-02-21T11:30:13.962Z,6.0
2023-02-21T11:32:11.505Z,6.1
2023-02-21T11:34:05.345Z,6.0
2023-02-21T11:36:12.340Z,5.8
2023-02-21T11:38:03.939Z,5.9
2023-02-21T11:40:01.789Z,6.0
2023-02-21T11:42:03.905Z,6.0
2023-02-21T11:44:00.325Z,6.0
2023-02-21T11:46:09.871Z,6.0
2023-02-21T11:48:03.179Z,6.0
2023-02-21T11:50:06.649Z,6.1
2023-02-21T11:52:02.604Z,6.1
2023-02-21T11:53:58.837Z,6.0
2023-02-21T11:56:10.510Z,6.1
2023-02-21T11:58:08.864Z,6.1
2023-02-21T12:00:08.306Z,6.1
2023-02-21T12:02:14.397Z,6.1
2023-02-21T12:04:09.678Z,6.1
2023-02-21T12:06:04.022Z,6.2
2023-02-21T12:08:11.597Z,6.2
2023-02-21T12:10:03.876Z,6.2
2023-02-21T12:12:05.633Z,6.3
2023-02-21T12:14:07.281Z,6.3
2023-02-21T12:16:07.234Z,6.3
2023-02-21T12:20:07.474Z,6.4
2023-02-21T12:24:00.132Z,6.4
2023-02-21T12:26:06.677Z,6.4
2023-02-21T12:27:57.766Z,6.4
2023-02-21T12:30:07.389Z,6.4
2023-02-21T12:32:08.629Z,6.4
2023-02-21T12:34:03.051Z,6.5
2023-02-21T12:36:11.349Z,6.6
2023-02-21T12:38:03.198Z,6.6
2023-02-21T12:42:05.775Z,6.5
2023-02-21T12:45:59.794Z,6.6
2023-02-21T12:47:55.241Z,6.6
2023-02-21T12:49:55.732Z,6.5
2023-02-21T12:51:53.725Z,6.6
2023-02-21T12:53:53.820Z,6.5
2023-02-21T12:55:50.801Z,6.5
2023-02-21T12:57:52.303Z,6.6
2023-02-21T12:59:56.386Z,6.5
2023-02-21T13:01:48.557Z,6.5
2023-02-21T13:03:56.776Z,6.4
2023-02-21T13:05:47.637Z,6.4
2023-02-21T13:07:52.872Z,6.6
2023-02-21T13:09:51.118Z,6.6
2023-02-21T13:11:53.733Z,6.7
2023-02-21T13:13:43.798Z,6.7
2023-02-21T13:15:45.902Z,6.8
2023-02-21T13:17:51.068Z,6.9
2023-02-21T13:19:46.100Z,6.9
2023-02-21T13:21:54.243Z,7.0
2023-02-21T13:23:55.638Z,7.0
2023-02-21T13:25:57.397Z,7.0
2023-02-21T13:27:53.552Z,7.0
2023-02-21T13:29:42.234Z,7.0
2023-02-21T13:31:44.914Z,7.0
2023-02-21T13:33:42.971Z,7.1
2023-02-21T13:35:39.934Z,7.1
2023-02-21T13:37:46.740Z,7.2
2023-02-21T13:39:44.772Z,7.2
2023-02-21T13:41:42.571Z,7.0
2023-02-21T13:43:47.254Z,7.1
2023-02-21T13:45:38.521Z,7.2
2023-02-21T13:47:57.587Z,7.2
2023-02-21T13:49:41.884Z,7.2
2023-02-21T13:51:45.926Z,7.3
2023-02-21T13:53:57.277Z,7.2
2023-02-21T13:55:36.877Z,7.2
2023-02-21T13:57:39.808Z,7.2
2023-02-21T13:59:35.963Z,7.2
2023-02-21T14:01:42.459Z,7.3
2023-02-21T14:03:34.737Z,7.3
2023-02-21T14:05:54.211Z,7.3
2023-02-21T14:07:45.794Z,7.3
2023-02-21T14:09:36.120Z,7.3
2023-02-21T14:11:37.964Z,7.3
2023-02-21T14:13:36.674Z,7.3
2023-02-21T14:15:39.554Z,7.3
2023-02-21T14:17:32.700Z,7.3
2023-02-21T14:19:35.939Z,7.4
2023-02-21T14:21:36.669Z,7.4
2023-02-21T14:23:38.845Z,7.4
2023-02-21T14:25:33.510Z,7.4
2023-02-21T14:27:34.748Z,7.4
2023-02-21T14:29:34.339Z,7.4
2023-02-21T14:31:46.412Z,7.3
2023-02-21T14:33:29.764Z,7.4
2023-02-21T14:35:34.538Z,7.3
2023-02-21T14:37:34.487Z,7.3
2023-02-21T14:41:42.766Z,7.4
2023-02-21T14:43:44.506Z,7.4
2023-02-21T14:45:41.479Z,7.3
2023-02-21T14:47:45.932Z,7.1
2023-02-21T14:49:46.729Z,7.3
2023-02-21T14:51:43.292Z,7.4
2023-02-21T14:53:45.967Z,7.4
2023-02-21T14:55:43.676Z,7.4
2023-02-21T14:57:45.233Z,7.5
2023-02-21T14:59:42.286Z,7.5
2023-02-21T15:01:38.550Z,7.6
2023-02-21T15:03:30.185Z,7.6
2023-02-21T15:05:29.251Z,7.5
2023-02-21T15:07:32.254Z,7.5
2023-02-21T15:09:23.752Z,7.5
2023-02-21T15:11:27.550Z,7.5
2023-02-21T15:13:27.474Z,7.5
2023-02-21T15:15:25.346Z,7.5
2023-02-21T15:17:24.721Z,7.5
2023-02-21T15:21:22.530Z,7.5
2023-02-21T15:23:28.672Z,7.4
2023-02-21T15:25:21.140Z,7.5
2023-02-21T15:27:20.725Z,7.5
2023-02-21T15:29:20.246Z,7.5
2023-02-21T15:31:21.099Z,7.5
2023-02-21T15:35:24.268Z,7.5
2023-02-21T15:37:23.733Z,7.5
2023-02-21T15:39:25.983Z,7.4
2023-02-21T15:41:27.634Z,7.5
2023-02-21T15:43:28.249Z,7.4
2023-02-21T15:45:21.785Z,7.4
2023-02-21T15:47:20.175Z,7.3
2023-02-21T15:51:17.560Z,7.3
2023-02-21T15:53:18.723Z,7.3
2023-02-21T15:55:27.835Z,7.2
2023-02-21T15:57:22.608Z,7.3
2023-02-21T15:59:18.975Z,7.3
2023-02-21T16:01:19.569Z,7.3
2023-02-21T16:03:26.530Z,7.3
2023-02-21T16:05:24.580Z,7.2
2023-02-21T16:07:19.865Z,7.2
2023-02-21T16:09:24.631Z,7.2
2023-02-21T16:11:13.918Z,7.1
2023-02-21T16:13:13.801Z,7.1
2023-02-21T16:15:23.463Z,7.1
2023-02-21T16:17:19.660Z,7.1
2023-02-21T16:19:12.414Z,7.1
2023-02-21T16:21:22.034Z,7.0
2023-02-21T16:23:22.449Z,7.0
2023-02-21T16:25:21.769Z,6.9
2023-02-21T16:27:15.159Z,7.0
2023-02-21T16:29:10.184Z,7.0
2023-02-21T16:33:12.893Z,6.8
2023-02-21T16:35:13.405Z,6.8
2023-02-21T16:37:11.141Z,6.8
2023-02-21T16:39:10.924Z,6.7
2023-02-21T16:41:13.690Z,6.6
2023-02-21T16:43:15.907Z,6.6
2023-02-21T16:45:08.025Z,6.6
2023-02-21T16:47:07.376Z,6.5
2023-02-21T16:49:09.812Z,6.4
2023-02-21T16:53:12.058Z,6.5
2023-02-21T16:55:05.971Z,6.4
2023-02-21T16:57:05.770Z,6.2
2023-02-21T16:59:09.865Z,6.2
2023-02-21T17:01:10.567Z,6.3
2023-02-21T17:03:04.412Z,6.2
2023-02-21T17:05:04.294Z,6.1
2023-02-21T17:07:08.602Z,6.1
2023-02-21T17:09:03.463Z,5.9
2023-02-21T17:11:03.595Z,5.8
2023-02-21T17:15:02.980Z,5.9
2023-02-21T17:17:01.802Z,5.7
2023-02-21T17:19:01.343Z,5.7
2023-02-21T17:21:01.273Z,5.5
2023-02-21T17:23:01.387Z,5.4
2023-02-21T17:25:00.265Z,5.5
2023-02-21T17:27:01.404Z,5.6
2023-02-21T17:28:59.630Z,5.4
2023-02-21T17:30:59.480Z,5.2
2023-02-21T17:32:58.996Z,5.2
2023-02-21T17:34:59.255Z,5.2
2023-02-21T17:36:58.249Z,5.1
2023-02-21T17:38:59.009Z,5.1
2023-02-21T17:40:58.292Z,5.1
2023-02-21T17:42:57.173Z,4.9
2023-02-21T17:44:57.968Z,4.9
2023-02-21T17:46:57.126Z,4.9
2023-02-21T17:48:55.880Z,4.9
2023-02-21T17:52:55.110Z,4.7
2023-02-21T17:54:55.028Z,4.4
2023-02-21T17:56:54.634Z,4.3
2023-02-21T17:58:54.738Z,4.3
2023-02-21T18:00:54.439Z,4.5
2023-02-21T18:02:55.162Z,4.5
2023-02-21T18:04:52.817Z,4.3
2023-02-21T18:06:52.873Z,4.4
2023-02-21T18:08:53.843Z,4.3
2023-02-21T18:10:51.850Z,4.3
2023-02-21T18:12:52.011Z,4.1
2023-02-21T18:14:52.239Z,4.1
2023-02-21T18:16:50.566Z,4.1
2023-02-21T18:18:50.493Z,4.1
2023-02-21T18:20:49.797Z,4.2
2023-02-21T18:22:49.499Z,3.9
2023-02-21T18:24:48.820Z,3.9
2023-02-21T18:26:48.503Z,4.1
2023-02-21T18:28:48.044Z,4.0
2023-02-21T18:30:50.262Z,3.9
2023-02-21T18:32:47.239Z,3.8
2023-02-21T18:34:46.942Z,3.2
2023-02-21T18:36:47.747Z,3.5
2023-02-21T18:38:46.032Z,3.2
2023-02-21T18:40:45.786Z,3.3
2023-02-21T18:44:44.808Z,3.4
2023-02-21T18:46:50.062Z,3.3
2023-02-21T18:48:47.147Z,3.3
2023-02-21T18:50:44.663Z,3.1
2023-02-21T18:52:43.047Z,3.3
2023-02-21T18:54:44.359Z,3.3
2023-02-21T18:56:47.978Z,3.5
2023-02-21T18:58:41.934Z,3.2
2023-02-21T19:00:41.687Z,3.2
2023-02-21T19:02:40.854Z,3.3
2023-02-21T19:04:42.369Z,3.4
2023-02-21T19:06:40.010Z,3.2
2023-02-21T19:08:39.733Z,3.3
2023-02-21T19:10:39.422Z,3.4
2023-02-21T19:12:39.342Z,3.4
2023-02-21T19:14:38.339Z,3.3
2023-02-21T19:16:38.128Z,3.3
2023-02-21T19:18:37.565Z,3.3
2023-02-21T19:20:38.853Z,3.2
2023-02-21T19:22:37.330Z,3.2
2023-02-21T19:24:36.203Z,3.2
2023-02-21T19:26:35.987Z,3.3
2023-02-21T19:28:37.551Z,3.3
2023-02-21T19:30:36.134Z,3.2
2023-02-21T19:32:35.641Z,3.0
2023-02-21T19:34:34.727Z,3.1
2023-02-21T19:36:33.571Z,3.0
2023-02-21T19:38:33.497Z,3.0
2023-02-21T19:40:34.341Z,2.8
2023-02-21T19:42:32.452Z,2.9
2023-02-21T19:44:32.320Z,2.8
2023-02-21T19:46:31.631Z,2.7
2023-02-21T19:48:31.140Z,2.6
2023-02-21T19:50:30.618Z,2.7
2023-02-21T19:52:30.180Z,2.7
2023-02-21T19:54:29.893Z,2.6
2023-02-21T19:56:29.376Z,2.7
2023-02-21T19:58:29.307Z,2.6
2023-02-21T20:02:27.991Z,2.5
2023-02-21T20:04:27.780Z,2.6
2023-02-21T20:06:28.096Z,2.3
2023-02-21T20:08:28.336Z,2.4
2023-02-21T20:10:26.604Z,2.6
2023-02-21T20:12:25.860Z,2.5
2023-02-21T20:14:25.905Z,2.5
2023-02-21T20:16:27.036Z,2.6
2023-02-21T20:18:24.475Z,2.6
2023-02-21T20:20:24.223Z,2.6
2023-02-21T20:24:23.333Z,2.5
2023-02-21T20:28:22.156Z,2.4
2023-02-21T20:30:23.303Z,2.4
2023-02-21T20:32:22.017Z,2.3
2023-02-21T20:34:23.370Z,2.2
2023-02-21T20:36:26.606Z,2.2
2023-02-21T20:38:20.519Z,2.3
2023-02-21T20:40:19.726Z,2.3
2023-02-21T20:42:21.705Z,2.3
2023-02-21T20:44:18.632Z,2.2
2023-02-21T20:46:19.990Z,2.1
2023-02-21T20:48:18.278Z,2.0
2023-02-21T20:50:19.102Z,2.0
2023-02-21T20:52:17.009Z,2.1
2023-02-21T20:54:18.996Z,2.2
2023-02-21T20:56:15.832Z,2.3
2023-02-21T21:00:17.562Z,2.5
2023-02-21T21:02:14.346Z,2.5
2023-02-21T21:04:15.832Z,2.6
2023-02-21T21:06:13.446Z,2.7
2023-02-21T21:08:13.398Z,2.8
2023-02-21T21:10:14.697Z,3.0
2023-02-21T21:12:16.561Z,3.1
2023-02-21T21:14:16.134Z,3.1
2023-02-21T21:16:11.122Z,3.2
2023-02-21T21:18:11.288Z,3.3
2023-02-21T21:20:13.776Z,3.3
2023-02-21T21:22:11.799Z,3.4
2023-02-21T21:24:10.665Z,3.5
2023-02-21T21:26:11.037Z,3.5
2023-02-21T21:28:08.416Z,3.5
2023-02-21T21:30:12.049Z,3.5
2023-02-21T21:32:08.639Z,3.5
2023-02-21T21:34:08.186Z,3.6
2023-02-21T21:36:08.194Z,3.6
2023-02-21T21:38:06.485Z,3.6
2023-02-21T21:40:15.149Z,3.6
2023-02-21T21:42:07.925Z,3.7
2023-02-21T21:44:05.082Z,3.7
2023-02-21T21:46:05.998Z,3.7
2023-02-21T21:48:04.790Z,3.7
2023-02-21T21:50:04.537Z,3.7
2023-02-21T21:52:03.964Z,3.7
2023-02-21T21:54:03.019Z,3.7
2023-02-21T21:56:03.731Z,3.7
2023-02-21T21:58:09.366Z,3.7
2023-02-21T22:00:05.112Z,3.7
2023-02-21T22:02:01.148Z,3.7
2023-02-21T22:04:00.693Z,3.7
2023-02-21T22:06:00.257Z,3.7
2023-02-21T22:08:00.414Z,3.8
2023-02-21T22:09:59.694Z,3.8
2023-02-21T22:11:59.123Z,3.8
2023-02-21T22:13:59.606Z,3.8
2023-02-21T22:15:58.453Z,3.8
2023-02-21T22:18:02.828Z,3.8
2023-02-21T22:21:58.363Z,3.8
2023-02-21T22:23:57.374Z,3.8
2023-02-21T22:25:56.244Z,3.8
2023-02-21T22:27:56.903Z,3.8
2023-02-21T22:29:56.638Z,3.8
2023-02-21T22:31:55.233Z,3.8
2023-02-21T22:33:58.120Z,3.8
2023-02-21T22:35:54.238Z,3.8
2023-02-21T22:37:56.518Z,3.9
2023-02-21T22:39:53.283Z,3.9
2023-02-21T22:41:53.418Z,3.9
2023-02-21T22:43:53.886Z,3.9
2023-02-21T22:45:52.050Z,3.9
2023-02-21T22:47:54.770Z,3.9
2023-02-21T22:49:51.078Z,3.9
2023-02-21T22:51:50.663Z,3.9
2023-02-21T22:53:50.498Z,3.9
2023-02-21T22:55:51.972Z,3.9
2023-02-21T22:57:51.335Z,3.9
2023-02-21T22:59:50.086Z,3.9
2023-02-21T23:01:49.773Z,3.9
2023-02-21T23:03:48.374Z,3.9
2023-02-21T23:05:50.349Z,4.0
2023-02-21T23:07:49.151Z,4.0
2023-02-21T23:09:47.595Z,4.0
2023-02-21T23:11:49.217Z,4.0
2023-02-21T23:13:46.647Z,4.0
2023-02-21T23:15:46.935Z,3.9
2023-02-21T23:17:47.456Z,3.9
2023-02-21T23:19:45.088Z,3.9
2023-02-21T23:21:46.124Z,3.9
2023-02-21T23:23:44.438Z,3.9
2023-02-21T23:25:45.828Z,3.9
2023-02-21T23:27:44.539Z,3.9
2023-02-21T23:29:43.017Z,3.8
2023-02-21T23:31:42.766Z,3.8
2023-02-21T23:33:43.452Z,3.9
2023-02-21T23:35:43.454Z,3.8
2023-02-21T23:37:42.630Z,3.8
2023-02-21T23:39:41.087Z,3.7
2023-02-21T23:41:42.147Z,3.7
2023-02-21T23:43:40.637Z,3.7
2023-02-21T23:45:40.206Z,3.5
2023-02-21T23:47:41.131Z,3.6
2023-02-21T23:49:43.018Z,3.7
2023-02-21T23:51:41.342Z,3.5
2023-02-21T23:53:39.965Z,3.6
2023-02-21T23:55:39.400Z,3.5
2023-02-21T23:57:41.888Z,3.6
2023-02-21T23:59:37.286Z,3.6
